sensor_id;sensor_type;location;lat;lon;timestamp;P1;durP1;ratioP1;P2;durP2;ratioP2
65535;SDS011;52145;49.342;9.116;2023-03-23T00:01:24;2.08;;;1.23;;
65535;SDS011;52145;49.342;9.116;2023-03-23T00:03:52;1.92;;;1.42;;
65535;SDS011;52145;49.342;9.116;2023-03-23T00:06:22;5.28;;;2.22;;
65535;SDS011;52145;49.342;9.116;2023-03-23T00:08:48;2.00;;;1.23;;
65535;SDS011;52145;49.342;9.116;2023-03-23T00:11:19;2.92;;;1.30;;
65535;SDS011;52145;49.342;9.116;2023-03-23T00:13:46;2.70;;;1.05;;
65535;SDS011;52145;49.342;9.116;2023-03-23T00:16:16;2.45;;;0.95;;
65535;SDS011;52145;49.342;9.116;2023-03-23T00:18:49;1.40;;;1.00;;
65535;SDS011;52145;49.342;9.116;2023-03-23T00:21:19;1.13;;;0.75;;
65535;SDS011;52145;49.342;9.116;2023-03-23T00:23:50;1.13;;;0.73;;
65535;SDS011;52145;49.342;9.116;2023-03-23T00:26:16;2.83;;;1.20;;
65535;SDS011;52145;49.342;9.116;2023-03-23T00:28:43;1.85;;;1.02;;
65535;SDS011;52145;49.342;9.116;2023-03-23T00:31:11;2.45;;;1.08;;
65535;SDS011;52145;49.342;9.116;2023-03-23T00:33:37;1.10;;;0.82;;
65535;SDS011;52145;49.342;9.116;2023-03-23T00:36:05;1.63;;;0.90;;
65535;SDS011;52145;49.342;9.116;2023-03-23T00:38:33;1.88;;;1.02;;
65535;SDS011;52145;49.342;9.116;2023-03-23T00:40:59;2.00;;;0.80;;
65535;SDS011;52145;49.342;9.116;2023-03-23T00:43:27;3.50;;;0.80;;
65535;SDS011;52145;49.342;9.116;2023-03-23T00:45:54;1.45;;;0.88;;
65535;SDS011;52145;49.342;9.116;2023-03-23T00:48:21;2.08;;;0.88;;
65535;SDS011;52145;49.342;9.116;2023-03-23T00:50:47;3.22;;;0.88;;
65535;SDS011;52145;49.342;9.116;2023-03-23T00:53:14;3.10;;;0.90;;
65535;SDS011;52145;49.342;9.116;2023-03-23T00:55:41;2.10;;;0.90;;
65535;SDS011;52145;49.342;9.116;2023-03-23T00:58:07;0.98;;;0.60;;
65535;SDS011;52145;49.342;9.116;2023-03-23T01:00:34;1.88;;;1.00;;
65535;SDS011;52145;49.342;9.116;2023-03-23T01:03:00;4.03;;;1.20;;
65535;SDS011;52145;49.342;9.116;2023-03-23T01:05:25;2.33;;;1.00;;
65535;SDS011;52145;49.342;9.116;2023-03-23T01:07:56;3.22;;;1.60;;
65535;SDS011;52145;49.342;9.116;2023-03-23T01:10:26;1.75;;;0.85;;
65535;SDS011;52145;49.342;9.116;2023-03-23T01:12:52;1.27;;;0.65;;
65535;SDS011;52145;49.342;9.116;2023-03-23T01:15:19;0.88;;;0.80;;
65535;SDS011;52145;49.342;9.116;2023-03-23T01:17:45;2.45;;;0.80;;
65535;SDS011;52145;49.342;9.116;2023-03-23T01:20:12;1.52;;;0.93;;
65535;SDS011;52145;49.342;9.116;2023-03-23T01:22:40;2.65;;;0.82;;
65535;SDS011;52145;49.342;9.116;2023-03-23T01:25:07;1.02;;;0.80;;
65535;SDS011;52145;49.342;9.116;2023-03-23T01:27:34;1.98;;;0.90;;
65535;SDS011;52145;49.342;9.116;2023-03-23T01:29:59;2.08;;;1.00;;
65535;SDS011;52145;49.342;9.116;2023-03-23T01:32:25;3.55;;;0.90;;
65535;SDS011;52145;49.342;9.116;2023-03-23T01:34:51;1.73;;;0.80;;
65535;SDS011;52145;49.342;9.116;2023-03-23T01:37:16;1.35;;;0.95;;
65535;SDS011;52145;49.342;9.116;2023-03-23T01:39:42;3.65;;;1.25;;
65535;SDS011;52145;49.342;9.116;2023-03-23T01:42:08;13.00;;;2.13;;
65535;SDS011;52145;49.342;9.116;2023-03-23T01:47:00;3.55;;;1.00;;
65535;SDS011;52145;49.342;9.116;2023-03-23T01:49:40;1.70;;;0.88;;
65535;SDS011;52145;49.342;9.116;2023-03-23T01:55:04;2.63;;;0.90;;
65535;SDS011;52145;49.342;9.116;2023-03-23T01:57:30;1.38;;;1.05;;
65535;SDS011;52145;49.342;9.116;2023-03-23T01:59:57;2.00;;;1.10;;
65535;SDS011;52145;49.342;9.116;2023-03-23T02:02:35;2.22;;;1.10;;
65535;SDS011;52145;49.342;9.116;2023-03-23T02:05:04;2.20;;;1.20;;
65535;SDS011;52145;49.342;9.116;2023-03-23T02:07:36;2.47;;;1.00;;
65535;SDS011;52145;49.342;9.116;2023-03-23T02:10:02;1.88;;;1.00;;
65535;SDS011;52145;49.342;9.116;2023-03-23T02:12:28;2.00;;;1.00;;
65535;SDS011;52145;49.342;9.116;2023-03-23T02:14:53;1.60;;;0.93;;
65535;SDS011;52145;49.342;9.116;2023-03-23T02:17:23;1.77;;;0.93;;
65535;SDS011;52145;49.342;9.116;2023-03-23T02:34:29;6.72;;;1.60;;
65535;SDS011;52145;49.342;9.116;2023-03-23T02:36:59;4.07;;;1.27;;
65535;SDS011;52145;49.342;9.116;2023-03-23T02:39:29;6.30;;;1.30;;
65535;SDS011;52145;49.342;9.116;2023-03-23T02:42:05;8.77;;;1.67;;
65535;SDS011;52145;49.342;9.116;2023-03-23T02:44:32;6.40;;;1.50;;
65535;SDS011;52145;49.342;9.116;2023-03-23T02:47:00;4.00;;;1.40;;
65535;SDS011;52145;49.342;9.116;2023-03-23T02:49:29;6.35;;;1.67;;
65535;SDS011;52145;49.342;9.116;2023-03-23T02:52:01;5.68;;;2.20;;
65535;SDS011;52145;49.342;9.116;2023-03-23T02:54:33;5.00;;;1.90;;
65535;SDS011;52145;49.342;9.116;2023-03-23T02:57:00;5.07;;;2.08;;
65535;SDS011;52145;49.342;9.116;2023-03-23T02:59:27;7.75;;;3.00;;
65535;SDS011;52145;49.342;9.116;2023-03-23T03:02:00;9.65;;;3.13;;
65535;SDS011;52145;49.342;9.116;2023-03-23T03:04:30;10.50;;;4.15;;
65535;SDS011;52145;49.342;9.116;2023-03-23T03:09:42;12.20;;;3.67;;
65535;SDS011;52145;49.342;9.116;2023-03-23T03:12:35;8.13;;;2.95;;
65535;SDS011;52145;49.342;9.116;2023-03-23T03:17:59;10.93;;;2.90;;
65535;SDS011;52145;49.342;9.116;2023-03-23T03:20:31;7.65;;;3.30;;
65535;SDS011;52145;49.342;9.116;2023-03-23T03:23:01;6.63;;;3.13;;
65535;SDS011;52145;49.342;9.116;2023-03-23T03:25:27;6.60;;;2.40;;
65535;SDS011;52145;49.342;9.116;2023-03-23T03:27:54;4.97;;;2.13;;
65535;SDS011;52145;49.342;9.116;2023-03-23T03:30:22;6.07;;;2.30;;
65535;SDS011;52145;49.342;9.116;2023-03-23T03:32:53;7.07;;;2.58;;
65535;SDS011;52145;49.342;9.116;2023-03-23T03:35:20;6.28;;;2.10;;
65535;SDS011;52145;49.342;9.116;2023-03-23T03:37:48;3.90;;;1.83;;
65535;SDS011;52145;49.342;9.116;2023-03-23T03:40:14;6.32;;;2.20;;
65535;SDS011;52145;49.342;9.116;2023-03-23T03:42:42;3.88;;;1.90;;
65535;SDS011;52145;49.342;9.116;2023-03-23T03:45:09;4.57;;;2.25;;
65535;SDS011;52145;49.342;9.116;2023-03-23T03:47:37;5.38;;;2.08;;
65535;SDS011;52145;49.342;9.116;2023-03-23T03:50:03;4.60;;;1.67;;
65535;SDS011;52145;49.342;9.116;2023-03-23T03:52:28;3.85;;;1.70;;
65535;SDS011;52145;49.342;9.116;2023-03-23T03:54:54;3.25;;;1.90;;
65535;SDS011;52145;49.342;9.116;2023-03-23T03:57:21;3.60;;;2.13;;
65535;SDS011;52145;49.342;9.116;2023-03-23T03:59:47;5.65;;;2.42;;
65535;SDS011;52145;49.342;9.116;2023-03-23T04:02:12;8.02;;;2.58;;
65535;SDS011;52145;49.342;9.116;2023-03-23T04:04:41;5.60;;;2.47;;
65535;SDS011;52145;49.342;9.116;2023-03-23T04:07:08;3.70;;;1.70;;
65535;SDS011;52145;49.342;9.116;2023-03-23T04:09:35;3.78;;;1.75;;
65535;SDS011;52145;49.342;9.116;2023-03-23T04:12:02;3.47;;;1.55;;
65535;SDS011;52145;49.342;9.116;2023-03-23T04:14:27;2.92;;;1.70;;
65535;SDS011;52145;49.342;9.116;2023-03-23T04:16:53;6.07;;;2.00;;
65535;SDS011;52145;49.342;9.116;2023-03-23T04:19:21;3.08;;;1.90;;
65535;SDS011;52145;49.342;9.116;2023-03-23T04:21:48;5.13;;;1.50;;
65535;SDS011;52145;49.342;9.116;2023-03-23T04:24:14;4.32;;;1.85;;
65535;SDS011;52145;49.342;9.116;2023-03-23T04:26:46;3.97;;;1.58;;
65535;SDS011;52145;49.342;9.116;2023-03-23T04:29:12;3.17;;;1.75;;
65535;SDS011;52145;49.342;9.116;2023-03-23T04:31:38;5.22;;;2.08;;
65535;SDS011;52145;49.342;9.116;2023-03-23T04:34:04;2.22;;;1.50;;
65535;SDS011;52145;49.342;9.116;2023-03-23T04:36:30;3.88;;;1.70;;
65535;SDS011;52145;49.342;9.116;2023-03-23T04:38:59;2.90;;;1.48;;
65535;SDS011;52145;49.342;9.116;2023-03-23T04:41:25;4.80;;;1.48;;
65535;SDS011;52145;49.342;9.116;2023-03-23T04:43:51;4.80;;;1.50;;
65535;SDS011;52145;49.342;9.116;2023-03-23T04:46:18;4.45;;;1.60;;
65535;SDS011;52145;49.342;9.116;2023-03-23T04:48:46;4.45;;;1.80;;
65535;SDS011;52145;49.342;9.116;2023-03-23T04:51:13;4.22;;;1.55;;
65535;SDS011;52145;49.342;9.116;2023-03-23T04:53:39;6.25;;;1.83;;
65535;SDS011;52145;49.342;9.116;2023-03-23T04:56:05;3.58;;;1.70;;
65535;SDS011;52145;49.342;9.116;2023-03-23T04:58:31;3.35;;;2.00;;
65535;SDS011;52145;49.342;9.116;2023-03-23T05:00:58;3.13;;;1.95;;
65535;SDS011;52145;49.342;9.116;2023-03-23T05:03:27;2.65;;;1.58;;
65535;SDS011;52145;49.342;9.116;2023-03-23T05:05:53;5.05;;;1.95;;
65535;SDS011;52145;49.342;9.116;2023-03-23T05:08:19;3.67;;;2.20;;
65535;SDS011;52145;49.342;9.116;2023-03-23T05:10:52;5.25;;;1.80;;
65535;SDS011;52145;49.342;9.116;2023-03-23T05:13:19;8.50;;;2.10;;
65535;SDS011;52145;49.342;9.116;2023-03-23T05:15:45;5.78;;;2.15;;
65535;SDS011;52145;49.342;9.116;2023-03-23T05:18:11;5.95;;;2.45;;
65535;SDS011;52145;49.342;9.116;2023-03-23T05:20:36;5.95;;;2.78;;
65535;SDS011;52145;49.342;9.116;2023-03-23T05:23:02;7.63;;;3.30;;
65535;SDS011;52145;49.342;9.116;2023-03-23T05:25:28;7.38;;;3.70;;
65535;SDS011;52145;49.342;9.116;2023-03-23T05:27:53;7.38;;;2.30;;
65535;SDS011;52145;49.342;9.116;2023-03-23T05:30:19;6.25;;;2.97;;
65535;SDS011;52145;49.342;9.116;2023-03-23T05:32:46;5.78;;;2.63;;
65535;SDS011;52145;49.342;9.116;2023-03-23T05:35:15;6.63;;;2.28;;
65535;SDS011;52145;49.342;9.116;2023-03-23T05:37:42;5.95;;;2.95;;
65535;SDS011;52145;49.342;9.116;2023-03-23T05:40:09;7.05;;;3.20;;
65535;SDS011;52145;49.342;9.116;2023-03-23T05:42:36;7.47;;;3.35;;
65535;SDS011;52145;49.342;9.116;2023-03-23T05:45:05;6.15;;;2.90;;
65535;SDS011;52145;49.342;9.116;2023-03-23T05:47:33;6.13;;;3.13;;
65535;SDS011;52145;49.342;9.116;2023-03-23T05:49:59;7.07;;;3.38;;
65535;SDS011;52145;49.342;9.116;2023-03-23T05:52:25;6.95;;;3.53;;
65535;SDS011;52145;49.342;9.116;2023-03-23T05:54:51;7.57;;;3.28;;
65535;SDS011;52145;49.342;9.116;2023-03-23T05:57:17;6.15;;;3.03;;
65535;SDS011;52145;49.342;9.116;2023-03-23T05:59:44;5.82;;;3.08;;
65535;SDS011;52145;49.342;9.116;2023-03-23T06:02:10;4.55;;;2.60;;
65535;SDS011;52145;49.342;9.116;2023-03-23T06:04:36;4.82;;;2.63;;
65535;SDS011;52145;49.342;9.116;2023-03-23T06:07:03;5.43;;;2.15;;
65535;SDS011;52145;49.342;9.116;2023-03-23T06:09:29;4.13;;;1.92;;
65535;SDS011;52145;49.342;9.116;2023-03-23T06:11:55;2.33;;;1.40;;
65535;SDS011;52145;49.342;9.116;2023-03-23T06:14:21;2.50;;;1.60;;
65535;SDS011;52145;49.342;9.116;2023-03-23T06:16:47;8.63;;;2.13;;
65535;SDS011;52145;49.342;9.116;2023-03-23T06:19:12;2.92;;;1.80;;
65535;SDS011;52145;49.342;9.116;2023-03-23T06:21:39;2.80;;;1.42;;
65535;SDS011;52145;49.342;9.116;2023-03-23T06:24:05;2.55;;;1.52;;
65535;SDS011;52145;49.342;9.116;2023-03-23T06:26:32;2.65;;;1.50;;
65535;SDS011;52145;49.342;9.116;2023-03-23T06:29:00;3.45;;;1.27;;
65535;SDS011;52145;49.342;9.116;2023-03-23T06:31:26;3.13;;;1.65;;
65535;SDS011;52145;49.342;9.116;2023-03-23T06:33:52;2.00;;;1.10;;
65535;SDS011;52145;49.342;9.116;2023-03-23T06:36:18;3.17;;;1.55;;
65535;SDS011;52145;49.342;9.116;2023-03-23T06:38:44;3.38;;;1.35;;
65535;SDS011;52145;49.342;9.116;2023-03-23T06:41:10;4.15;;;1.30;;
65535;SDS011;52145;49.342;9.116;2023-03-23T06:43:36;2.35;;;1.23;;
65535;SDS011;52145;49.342;9.116;2023-03-23T06:46:04;1.73;;;1.10;;
65535;SDS011;52145;49.342;9.116;2023-03-23T06:48:33;1.65;;;1.15;;
65535;SDS011;52145;49.342;9.116;2023-03-23T06:50:58;2.67;;;1.20;;
65535;SDS011;52145;49.342;9.116;2023-03-23T06:53:24;1.98;;;1.30;;
65535;SDS011;52145;49.342;9.116;2023-03-23T06:55:50;4.82;;;1.33;;
65535;SDS011;52145;49.342;9.116;2023-03-23T06:58:16;3.92;;;1.10;;
65535;SDS011;52145;49.342;9.116;2023-03-23T07:00:41;2.45;;;1.50;;
65535;SDS011;52145;49.342;9.116;2023-03-23T07:03:07;3.25;;;1.75;;
65535;SDS011;52145;49.342;9.116;2023-03-23T07:05:33;4.50;;;2.33;;
65535;SDS011;52145;49.342;9.116;2023-03-23T07:08:00;3.25;;;1.40;;
65535;SDS011;52145;49.342;9.116;2023-03-23T07:10:26;3.60;;;1.98;;
65535;SDS011;52145;49.342;9.116;2023-03-23T07:12:52;4.03;;;1.80;;
65535;SDS011;52145;49.342;9.116;2023-03-23T07:15:18;4.53;;;2.08;;
65535;SDS011;52145;49.342;9.116;2023-03-23T07:17:43;3.30;;;1.60;;
65535;SDS011;52145;49.342;9.116;2023-03-23T07:20:09;4.68;;;1.50;;
65535;SDS011;52145;49.342;9.116;2023-03-23T07:22:35;1.48;;;1.10;;
65535;SDS011;52145;49.342;9.116;2023-03-23T07:25:01;3.90;;;1.40;;
65535;SDS011;52145;49.342;9.116;2023-03-23T07:27:26;4.07;;;2.35;;
65535;SDS011;52145;49.342;9.116;2023-03-23T07:29:52;4.05;;;2.05;;
65535;SDS011;52145;49.342;9.116;2023-03-23T07:32:18;6.78;;;3.00;;
65535;SDS011;52145;49.342;9.116;2023-03-23T07:34:43;3.58;;;2.10;;
65535;SDS011;52145;49.342;9.116;2023-03-23T07:37:09;6.95;;;3.13;;
65535;SDS011;52145;49.342;9.116;2023-03-23T07:39:35;5.57;;;2.78;;
65535;SDS011;52145;49.342;9.116;2023-03-23T07:42:01;5.82;;;3.00;;
65535;SDS011;52145;49.342;9.116;2023-03-23T07:44:26;6.60;;;3.35;;
65535;SDS011;52145;49.342;9.116;2023-03-23T07:46:52;5.57;;;2.78;;
65535;SDS011;52145;49.342;9.116;2023-03-23T07:49:17;4.82;;;2.25;;
65535;SDS011;52145;49.342;9.116;2023-03-23T07:51:44;4.10;;;2.05;;
65535;SDS011;52145;49.342;9.116;2023-03-23T07:54:10;5.10;;;2.28;;
65535;SDS011;52145;49.342;9.116;2023-03-23T07:56:36;4.88;;;2.55;;
65535;SDS011;52145;49.342;9.116;2023-03-23T07:59:04;4.32;;;1.92;;
65535;SDS011;52145;49.342;9.116;2023-03-23T08:01:30;5.15;;;1.90;;
65535;SDS011;52145;49.342;9.116;2023-03-23T08:03:57;5.95;;;2.40;;
65535;SDS011;52145;49.342;9.116;2023-03-23T08:06:23;2.95;;;1.80;;
65535;SDS011;52145;49.342;9.116;2023-03-23T08:08:49;6.18;;;2.45;;
65535;SDS011;52145;49.342;9.116;2023-03-23T08:11:15;3.47;;;1.98;;
65535;SDS011;52145;49.342;9.116;2023-03-23T08:13:41;3.90;;;1.50;;
65535;SDS011;52145;49.342;9.116;2023-03-23T08:16:08;4.95;;;1.60;;
65535;SDS011;52145;49.342;9.116;2023-03-23T08:18:34;5.72;;;2.75;;
65535;SDS011;52145;49.342;9.116;2023-03-23T08:21:00;4.10;;;1.65;;
65535;SDS011;52145;49.342;9.116;2023-03-23T08:23:26;3.22;;;1.52;;
65535;SDS011;52145;49.342;9.116;2023-03-23T08:25:52;4.28;;;2.30;;
65535;SDS011;52145;49.342;9.116;2023-03-23T08:28:18;3.00;;;1.25;;
65535;SDS011;52145;49.342;9.116;2023-03-23T08:30:44;3.60;;;1.60;;
65535;SDS011;52145;49.342;9.116;2023-03-23T08:33:10;3.88;;;2.20;;
65535;SDS011;52145;49.342;9.116;2023-03-23T08:35:36;3.83;;;1.50;;
65535;SDS011;52145;49.342;9.116;2023-03-23T08:38:02;2.88;;;1.50;;
65535;SDS011;52145;49.342;9.116;2023-03-23T08:40:28;2.60;;;1.55;;
65535;SDS011;52145;49.342;9.116;2023-03-23T08:42:54;3.05;;;1.60;;
65535;SDS011;52145;49.342;9.116;2023-03-23T08:45:20;3.55;;;1.70;;
65535;SDS011;52145;49.342;9.116;2023-03-23T08:47:48;3.60;;;1.55;;
65535;SDS011;52145;49.342;9.116;2023-03-23T08:50:17;3.45;;;1.40;;
65535;SDS011;52145;49.342;9.116;2023-03-23T08:52:45;4.32;;;1.65;;
65535;SDS011;52145;49.342;9.116;2023-03-23T08:55:12;3.72;;;1.73;;
65535;SDS011;52145;49.342;9.116;2023-03-23T08:57:38;9.77;;;2.38;;
65535;SDS011;52145;49.342;9.116;2023-03-23T09:00:06;2.47;;;1.40;;
65535;SDS011;52145;49.342;9.116;2023-03-23T09:02:43;4.07;;;1.80;;
65535;SDS011;52145;49.342;9.116;2023-03-23T09:05:10;6.55;;;1.70;;
65535;SDS011;52145;49.342;9.116;2023-03-23T09:07:39;3.20;;;1.60;;
65535;SDS011;52145;49.342;9.116;2023-03-23T09:10:06;3.95;;;2.03;;
65535;SDS011;52145;49.342;9.116;2023-03-23T09:12:33;4.25;;;1.73;;
65535;SDS011;52145;49.342;9.116;2023-03-23T09:14:59;5.55;;;2.35;;
65535;SDS011;52145;49.342;9.116;2023-03-23T09:17:26;2.95;;;1.70;;
65535;SDS011;52145;49.342;9.116;2023-03-23T09:19:51;3.60;;;1.73;;
65535;SDS011;52145;49.342;9.116;2023-03-23T09:22:17;2.45;;;1.70;;
65535;SDS011;52145;49.342;9.116;2023-03-23T09:24:44;4.30;;;2.17;;
65535;SDS011;52145;49.342;9.116;2023-03-23T09:27:11;3.53;;;1.77;;
65535;SDS011;52145;49.342;9.116;2023-03-23T09:29:36;2.88;;;1.65;;
65535;SDS011;52145;49.342;9.116;2023-03-23T09:32:03;3.30;;;1.80;;
65535;SDS011;52145;49.342;9.116;2023-03-23T09:34:28;3.35;;;1.67;;
65535;SDS011;52145;49.342;9.116;2023-03-23T09:36:54;2.47;;;1.70;;
65535;SDS011;52145;49.342;9.116;2023-03-23T09:39:20;2.28;;;1.35;;
65535;SDS011;52145;49.342;9.116;2023-03-23T09:44:23;4.00;;;1.95;;
65535;SDS011;52145;49.342;9.116;2023-03-23T09:47:14;5.03;;;2.80;;
65535;SDS011;52145;49.342;9.116;2023-03-23T09:50:21;5.45;;;1.75;;
65535;SDS011;52145;49.342;9.116;2023-03-23T09:52:52;4.00;;;2.35;;
65535;SDS011;52145;49.342;9.116;2023-03-23T09:55:23;3.28;;;1.95;;
65535;SDS011;52145;49.342;9.116;2023-03-23T09:57:55;2.92;;;1.60;;
65535;SDS011;52145;49.342;9.116;2023-03-23T10:00:36;3.80;;;1.67;;
65535;SDS011;52145;49.342;9.116;2023-03-23T10:03:13;3.40;;;1.65;;
65535;SDS011;52145;49.342;9.116;2023-03-23T10:05:53;4.57;;;2.35;;
65535;SDS011;52145;49.342;9.116;2023-03-23T10:08:21;3.05;;;2.00;;
65535;SDS011;52145;49.342;9.116;2023-03-23T10:11:36;4.20;;;2.00;;
65535;SDS011;52145;49.342;9.116;2023-03-23T10:16:25;4.18;;;2.00;;
65535;SDS011;52145;49.342;9.116;2023-03-23T10:19:09;5.38;;;2.80;;
65535;SDS011;52145;49.342;9.116;2023-03-23T10:21:39;5.60;;;2.72;;
65535;SDS011;52145;49.342;9.116;2023-03-23T10:24:16;4.50;;;2.83;;
65535;SDS011;52145;49.342;9.116;2023-03-23T10:27:13;6.65;;;3.25;;
65535;SDS011;52145;49.342;9.116;2023-03-23T10:29:52;7.32;;;3.97;;
65535;SDS011;52145;49.342;9.116;2023-03-23T10:35:07;4.15;;;2.30;;
65535;SDS011;52145;49.342;9.116;2023-03-23T10:37:40;5.10;;;2.75;;
65535;SDS011;52145;49.342;9.116;2023-03-23T10:40:23;11.32;;;5.95;;
65535;SDS011;52145;49.342;9.116;2023-03-23T10:42:52;4.22;;;2.40;;
65535;SDS011;52145;49.342;9.116;2023-03-23T10:50:36;5.55;;;2.70;;
65535;SDS011;52145;49.342;9.116;2023-03-23T10:53:07;4.65;;;2.58;;
65535;SDS011;52145;49.342;9.116;2023-03-23T10:55:49;6.32;;;3.15;;
65535;SDS011;52145;49.342;9.116;2023-03-23T10:58:22;7.25;;;3.33;;
65535;SDS011;52145;49.342;9.116;2023-03-23T11:00:56;4.35;;;1.92;;
65535;SDS011;52145;49.342;9.116;2023-03-23T11:03:24;6.05;;;2.42;;
65535;SDS011;52145;49.342;9.116;2023-03-23T11:05:58;5.43;;;2.17;;
65535;SDS011;52145;49.342;9.116;2023-03-23T11:08:27;3.00;;;2.15;;
65535;SDS011;52145;49.342;9.116;2023-03-23T11:13:31;4.82;;;2.63;;
65535;SDS011;52145;49.342;9.116;2023-03-23T11:15:57;7.40;;;2.30;;
65535;SDS011;52145;49.342;9.116;2023-03-23T11:18:36;6.53;;;2.95;;
65535;SDS011;52145;49.342;9.116;2023-03-23T11:21:03;4.60;;;2.40;;
65535;SDS011;52145;49.342;9.116;2023-03-23T11:23:34;3.88;;;1.88;;
65535;SDS011;52145;49.342;9.116;2023-03-23T11:31:22;4.53;;;2.28;;
65535;SDS011;52145;49.342;9.116;2023-03-23T11:33:55;5.35;;;1.98;;
65535;SDS011;52145;49.342;9.116;2023-03-23T11:36:29;5.05;;;1.80;;
65535;SDS011;52145;49.342;9.116;2023-03-23T11:39:00;4.57;;;2.13;;
65535;SDS011;52145;49.342;9.116;2023-03-23T11:41:32;2.92;;;1.65;;
65535;SDS011;52145;49.342;9.116;2023-03-23T11:44:02;3.88;;;1.52;;
65535;SDS011;52145;49.342;9.116;2023-03-23T11:46:36;4.95;;;2.47;;
65535;SDS011;52145;49.342;9.116;2023-03-23T11:52:02;2.57;;;1.60;;
65535;SDS011;52145;49.342;9.116;2023-03-23T11:54:41;4.38;;;1.65;;
65535;SDS011;52145;49.342;9.116;2023-03-23T11:57:14;3.92;;;1.40;;
65535;SDS011;52145;49.342;9.116;2023-03-23T11:59:41;2.25;;;1.50;;
65535;SDS011;52145;49.342;9.116;2023-03-23T12:07:35;3.92;;;1.80;;
65535;SDS011;52145;49.342;9.116;2023-03-23T12:10:27;2.92;;;1.40;;
65535;SDS011;52145;49.342;9.116;2023-03-23T12:15:47;1.88;;;1.27;;
65535;SDS011;52145;49.342;9.116;2023-03-23T12:18:29;3.45;;;1.40;;
65535;SDS011;52145;49.342;9.116;2023-03-23T12:21:21;5.35;;;1.50;;
65535;SDS011;52145;49.342;9.116;2023-03-23T12:24:13;1.77;;;1.20;;
65535;SDS011;52145;49.342;9.116;2023-03-23T12:27:01;2.92;;;1.23;;
65535;SDS011;52145;49.342;9.116;2023-03-23T12:34:50;2.20;;;1.20;;
65535;SDS011;52145;49.342;9.116;2023-03-23T12:43:05;1.95;;;1.10;;
65535;SDS011;52145;49.342;9.116;2023-03-23T12:45:50;2.08;;;1.20;;
65535;SDS011;52145;49.342;9.116;2023-03-23T12:48:40;2.30;;;1.05;;
65535;SDS011;52145;49.342;9.116;2023-03-23T12:51:17;4.32;;;1.40;;
65535;SDS011;52145;49.342;9.116;2023-03-23T12:59:07;2.25;;;1.15;;
65535;SDS011;52145;49.342;9.116;2023-03-23T13:01:46;2.13;;;1.20;;
65535;SDS011;52145;49.342;9.116;2023-03-23T13:04:50;2.25;;;1.38;;
65535;SDS011;52145;49.342;9.116;2023-03-23T13:07:13;4.97;;;1.40;;
65535;SDS011;52145;49.342;9.116;2023-03-23T13:09:52;1.85;;;1.17;;
65535;SDS011;52145;49.342;9.116;2023-03-23T13:12:23;2.35;;;1.38;;
65535;SDS011;52145;49.342;9.116;2023-03-23T13:14:53;2.15;;;1.20;;
65535;SDS011;52145;49.342;9.116;2023-03-23T13:20:41;3.88;;;1.60;;
65535;SDS011;52145;49.342;9.116;2023-03-23T13:23:15;2.35;;;1.55;;
65535;SDS011;52145;49.342;9.116;2023-03-23T13:28:30;2.20;;;1.20;;
65535;SDS011;52145;49.342;9.116;2023-03-23T13:33:26;2.30;;;1.23;;
65535;SDS011;52145;49.342;9.116;2023-03-23T13:35:55;4.32;;;1.60;;
65535;SDS011;52145;49.342;9.116;2023-03-23T13:38:25;3.10;;;1.30;;
65535;SDS011;52145;49.342;9.116;2023-03-23T13:40:55;2.55;;;1.20;;
65535;SDS011;52145;49.342;9.116;2023-03-23T13:43:30;2.25;;;1.30;;
65535;SDS011;52145;49.342;9.116;2023-03-23T13:46:11;2.88;;;1.02;;
65535;SDS011;52145;49.342;9.116;2023-03-23T13:48:47;4.97;;;1.85;;
65535;SDS011;52145;49.342;9.116;2023-03-23T13:51:24;5.22;;;1.45;;
65535;SDS011;52145;49.342;9.116;2023-03-23T13:56:59;3.13;;;1.63;;
65535;SDS011;52145;49.342;9.116;2023-03-23T13:59:47;2.00;;;1.27;;
65535;SDS011;52145;49.342;9.116;2023-03-23T14:02:27;3.53;;;1.27;;
65535;SDS011;52145;49.342;9.116;2023-03-23T14:05:10;3.47;;;1.55;;
65535;SDS011;52145;49.342;9.116;2023-03-23T14:10:21;4.13;;;2.10;;
65535;SDS011;52145;49.342;9.116;2023-03-23T14:12:49;3.47;;;1.85;;
65535;SDS011;52145;49.342;9.116;2023-03-23T14:15:17;4.45;;;1.55;;
65535;SDS011;52145;49.342;9.116;2023-03-23T14:17:43;2.70;;;1.40;;
65535;SDS011;52145;49.342;9.116;2023-03-23T14:20:21;1.92;;;1.40;;
65535;SDS011;52145;49.342;9.116;2023-03-23T14:22:54;7.30;;;1.60;;
65535;SDS011;52145;49.342;9.116;2023-03-23T14:25:21;3.85;;;1.80;;
65535;SDS011;52145;49.342;9.116;2023-03-23T14:27:51;4.00;;;2.25;;
65535;SDS011;52145;49.342;9.116;2023-03-23T14:30:19;11.88;;;3.20;;
65535;SDS011;52145;49.342;9.116;2023-03-23T14:32:51;4.38;;;2.75;;
65535;SDS011;52145;49.342;9.116;2023-03-23T14:35:29;3.95;;;2.47;;
65535;SDS011;52145;49.342;9.116;2023-03-23T14:37:56;5.60;;;3.17;;
65535;SDS011;52145;49.342;9.116;2023-03-23T14:40:23;6.13;;;2.78;;
65535;SDS011;52145;49.342;9.116;2023-03-23T14:42:52;3.67;;;1.80;;
65535;SDS011;52145;49.342;9.116;2023-03-23T14:45:19;4.38;;;1.83;;
65535;SDS011;52145;49.342;9.116;2023-03-23T14:47:47;4.28;;;1.70;;
65535;SDS011;52145;49.342;9.116;2023-03-23T14:52:51;3.17;;;1.50;;
65535;SDS011;52145;49.342;9.116;2023-03-23T14:55:18;3.17;;;1.70;;
65535;SDS011;52145;49.342;9.116;2023-03-23T14:57:49;1.92;;;1.30;;
65535;SDS011;52145;49.342;9.116;2023-03-23T15:00:16;5.72;;;2.10;;
65535;SDS011;52145;49.342;9.116;2023-03-23T15:02:47;5.00;;;2.00;;
65535;SDS011;52145;49.342;9.116;2023-03-23T15:05:22;6.47;;;2.33;;
65535;SDS011;52145;49.342;9.116;2023-03-23T15:08:13;7.53;;;2.10;;
65535;SDS011;52145;49.342;9.116;2023-03-23T15:10:50;3.85;;;1.90;;
65535;SDS011;52145;49.342;9.116;2023-03-23T15:13:17;9.90;;;2.55;;
65535;SDS011;52145;49.342;9.116;2023-03-23T15:15:42;5.20;;;1.98;;
65535;SDS011;52145;49.342;9.116;2023-03-23T15:18:26;5.90;;;2.20;;
65535;SDS011;52145;49.342;9.116;2023-03-23T15:20:56;7.22;;;2.90;;
65535;SDS011;52145;49.342;9.116;2023-03-23T15:23:26;4.20;;;2.67;;
65535;SDS011;52145;49.342;9.116;2023-03-23T15:25:54;5.40;;;3.15;;
65535;SDS011;52145;49.342;9.116;2023-03-23T15:28:27;4.72;;;2.35;;
65535;SDS011;52145;49.342;9.116;2023-03-23T15:31:00;5.15;;;2.70;;
65535;SDS011;52145;49.342;9.116;2023-03-23T15:33:35;5.55;;;2.60;;
65535;SDS011;52145;49.342;9.116;2023-03-23T15:36:05;3.83;;;1.98;;
65535;SDS011;52145;49.342;9.116;2023-03-23T15:38:43;4.53;;;2.08;;
65535;SDS011;52145;49.342;9.116;2023-03-23T15:41:21;3.22;;;1.70;;
65535;SDS011;52145;49.342;9.116;2023-03-23T15:43:53;4.18;;;1.85;;
65535;SDS011;52145;49.342;9.116;2023-03-23T15:46:25;4.63;;;1.70;;
65535;SDS011;52145;49.342;9.116;2023-03-23T15:51:24;2.70;;;1.90;;
65535;SDS011;52145;49.342;9.116;2023-03-23T15:53:51;5.25;;;2.00;;
65535;SDS011;52145;49.342;9.116;2023-03-23T15:56:18;3.90;;;1.85;;
65535;SDS011;52145;49.342;9.116;2023-03-23T15:58:45;4.15;;;2.03;;
65535;SDS011;52145;49.342;9.116;2023-03-23T16:01:11;3.10;;;1.73;;
65535;SDS011;52145;49.342;9.116;2023-03-23T16:03:45;3.90;;;2.15;;
65535;SDS011;52145;49.342;9.116;2023-03-23T16:06:14;4.20;;;2.15;;
65535;SDS011;52145;49.342;9.116;2023-03-23T16:08:42;4.28;;;2.25;;
65535;SDS011;52145;49.342;9.116;2023-03-23T16:11:11;4.57;;;2.25;;
65535;SDS011;52145;49.342;9.116;2023-03-23T16:13:38;4.75;;;2.10;;
65535;SDS011;52145;49.342;9.116;2023-03-23T16:16:05;3.03;;;1.85;;
65535;SDS011;52145;49.342;9.116;2023-03-23T16:18:34;3.08;;;1.83;;
65535;SDS011;52145;49.342;9.116;2023-03-23T16:20:59;4.18;;;1.98;;
65535;SDS011;52145;49.342;9.116;2023-03-23T16:23:25;3.83;;;2.00;;
65535;SDS011;52145;49.342;9.116;2023-03-23T16:25:51;3.85;;;1.85;;
